createdAt,value
2022-12-23T00:00:09.308Z,12.60
2022-12-23T00:02:56.966Z,11.30
2022-12-23T00:05:23.782Z,12.40
2022-12-23T00:07:50.309Z,10.40
2022-12-23T00:10:16.763Z,12.00
2022-12-23T00:13:02.096Z,8.70
2022-12-23T00:15:28.570Z,13.20
2022-12-23T00:17:54.936Z,13.90
2022-12-23T00:20:21.449Z,11.50
2022-12-23T00:23:06.249Z,11.70
2022-12-23T00:25:45.457Z,8.30
2022-12-23T00:28:13.622Z,5.90
2022-12-23T00:30:47.249Z,9.10
2022-12-23T00:33:14.915Z,7.80
2022-12-23T00:35:42.061Z,8.50
2022-12-23T00:38:08.502Z,11.00
2022-12-23T00:40:53.860Z,10.50
2022-12-23T00:43:20.429Z,9.00
2022-12-23T00:45:46.933Z,8.60
2022-12-23T00:48:32.296Z,9.70
2022-12-23T00:50:58.812Z,9.60
2022-12-23T00:53:25.193Z,8.90
2022-12-23T00:55:51.949Z,11.40
2022-12-23T00:58:19.001Z,9.80
2022-12-23T01:01:04.497Z,9.80
2022-12-23T01:03:50.081Z,8.30
2022-12-23T01:06:16.719Z,8.70
2022-12-23T01:08:43.461Z,7.60
2022-12-23T01:11:10.949Z,8.60
2022-12-23T01:13:37.866Z,12.70
2022-12-23T01:16:15.069Z,10.00
2022-12-23T01:18:43.481Z,9.90
2022-12-23T01:21:10.332Z,8.60
2022-12-23T01:23:36.763Z,7.90
2022-12-23T01:26:04.411Z,8.20
2022-12-23T01:28:31.528Z,11.40
2022-12-23T01:30:59.307Z,10.20
2022-12-23T01:33:26.770Z,16.50
2022-12-23T01:35:58.875Z,15.30
2022-12-23T01:38:25.271Z,12.80
2022-12-23T01:40:51.627Z,15.10
2022-12-23T01:43:18.824Z,12.70
2022-12-23T01:45:46.011Z,11.60
2022-12-23T01:48:12.602Z,10.40
2022-12-23T01:50:42.209Z,11.80
2022-12-23T01:53:11.821Z,11.70
2022-12-23T01:55:40.777Z,9.70
2022-12-23T01:58:09.729Z,11.50
2022-12-23T02:00:55.848Z,10.70
2022-12-23T02:03:40.904Z,12.40
2022-12-23T02:06:44.623Z,12.80
2022-12-23T02:09:21.655Z,13.50
2022-12-23T02:11:57.202Z,13.60
2022-12-23T02:15:01.113Z,11.40
2022-12-23T02:17:30.414Z,11.10
2022-12-23T02:20:15.180Z,12.70
2022-12-23T02:22:50.451Z,11.20
2022-12-23T02:25:35.456Z,12.10
2022-12-23T02:28:04.511Z,9.30
2022-12-23T02:30:39.854Z,10.30
2022-12-23T02:33:09.232Z,9.90
2022-12-23T02:35:54.542Z,9.80
2022-12-23T02:38:26.877Z,9.80
2022-12-23T02:41:03.922Z,8.10
2022-12-23T02:43:46.222Z,9.60
2022-12-23T02:46:31.534Z,7.60
2022-12-23T02:49:10.273Z,10.80
2022-12-23T02:51:39.818Z,11.20
2022-12-23T02:54:08.451Z,10.00
2022-12-23T02:56:36.406Z,10.20
2022-12-23T02:59:11.549Z,8.80
2022-12-23T03:01:39.416Z,10.80
2022-12-23T03:04:06.925Z,8.60
2022-12-23T03:06:38.840Z,12.30
2022-12-23T03:09:05.483Z,10.40
2022-12-23T03:11:39.485Z,10.70
2022-12-23T03:14:14.911Z,14.20
2022-12-23T03:16:47.114Z,12.20
2022-12-23T03:19:20.062Z,12.80
2022-12-23T03:21:53.530Z,11.10
2022-12-23T03:24:36.141Z,10.00
2022-12-23T03:27:08.390Z,11.70
2022-12-23T03:29:34.802Z,13.90
2022-12-23T03:32:02.702Z,15.30
2022-12-23T03:34:31.863Z,9.80
2022-12-23T03:37:00.276Z,10.70
2022-12-23T03:39:32.695Z,7.90
2022-12-23T03:42:01.518Z,7.50
2022-12-23T03:44:29.912Z,7.00
2022-12-23T03:47:14.271Z,7.50
2022-12-23T03:49:43.327Z,7.30
2022-12-23T03:52:18.886Z,6.30
2022-12-23T03:54:50.429Z,6.60
2022-12-23T03:57:17.782Z,8.70
2022-12-23T03:59:46.016Z,7.10
2022-12-23T04:02:26.133Z,5.50
2022-12-23T04:04:52.755Z,4.90
2022-12-23T04:07:24.908Z,5.80
2022-12-23T04:09:52.443Z,5.20
2022-12-23T04:12:20.659Z,5.10
2022-12-23T04:14:48.111Z,6.10
2022-12-23T04:17:15.259Z,5.10
2022-12-23T04:19:42.055Z,5.20
2022-12-23T04:22:08.554Z,6.10
2022-12-23T04:24:34.895Z,4.30
2022-12-23T04:27:01.270Z,5.90
2022-12-23T04:29:27.939Z,4.70
2022-12-23T04:31:54.492Z,4.90
2022-12-23T04:34:21.042Z,5.10
2022-12-23T04:36:47.459Z,5.00
2022-12-23T04:39:13.862Z,4.30
2022-12-23T04:41:40.217Z,4.50
2022-12-23T04:44:07.482Z,5.70
2022-12-23T04:46:33.946Z,4.90
2022-12-23T04:49:00.447Z,4.10
2022-12-23T04:51:26.841Z,6.10
2022-12-23T04:53:53.253Z,4.60
2022-12-23T04:56:19.688Z,6.10
2022-12-23T04:58:46.033Z,4.90
2022-12-23T05:01:12.705Z,4.50
2022-12-23T05:03:39.545Z,5.20
2022-12-23T05:06:06.484Z,4.40
2022-12-23T05:08:32.949Z,5.20
2022-12-23T05:10:59.391Z,5.30
2022-12-23T05:13:26.302Z,8.50
2022-12-23T05:15:53.531Z,7.90
2022-12-23T05:18:20.584Z,63.80
2022-12-23T05:20:47.947Z,52.20
2022-12-23T05:23:14.325Z,90.00
2022-12-23T05:25:40.953Z,41.40
2022-12-23T05:28:08.891Z,194.00
2022-12-23T05:30:35.431Z,120.00
2022-12-23T05:33:01.968Z,86.40
2022-12-23T05:35:28.491Z,93.40
2022-12-23T05:37:54.926Z,60.80
2022-12-23T05:40:23.863Z,29.00
2022-12-23T05:42:52.403Z,17.30
2022-12-23T05:45:18.835Z,11.90
2022-12-23T05:47:45.183Z,10.80
2022-12-23T05:50:11.635Z,6.00
2022-12-23T05:52:38.034Z,6.20
2022-12-23T05:55:04.825Z,6.40
2022-12-23T05:57:34.284Z,7.70
2022-12-23T06:00:00.633Z,8.70
2022-12-23T06:02:27.126Z,7.60
2022-12-23T06:04:53.677Z,3.80
2022-12-23T06:07:20.112Z,5.00
2022-12-23T06:09:46.425Z,6.10
2022-12-23T06:12:12.871Z,6.20
2022-12-23T06:14:39.303Z,5.40
2022-12-23T06:17:05.729Z,4.40
2022-12-23T06:19:32.270Z,3.10
2022-12-23T06:21:58.630Z,2.80
2022-12-23T06:24:25.149Z,3.40
2022-12-23T06:26:56.706Z,7.30
2022-12-23T06:29:24.661Z,9.40
2022-12-23T06:31:51.061Z,8.60
2022-12-23T06:34:17.636Z,6.70
2022-12-23T06:36:44.048Z,5.10
2022-12-23T06:39:10.804Z,6.00
2022-12-23T06:41:37.243Z,6.00
2022-12-23T06:44:03.783Z,6.70
2022-12-23T06:46:30.228Z,5.30
2022-12-23T06:48:56.737Z,4.60
2022-12-23T06:51:23.172Z,4.30
2022-12-23T06:53:49.616Z,3.90
2022-12-23T06:56:15.969Z,6.60
2022-12-23T06:58:42.399Z,2.70
2022-12-23T07:01:10.234Z,6.90
2022-12-23T07:03:37.162Z,9.30
2022-12-23T07:06:03.928Z,5.80
2022-12-23T07:08:30.273Z,4.70
2022-12-23T07:10:57.841Z,12.70
2022-12-23T07:13:24.379Z,8.60
2022-12-23T07:15:50.804Z,9.10
2022-12-23T07:18:17.317Z,15.70
2022-12-23T07:20:43.980Z,10.70
2022-12-23T07:23:10.320Z,8.90
2022-12-23T07:25:36.617Z,4.90
2022-12-23T07:28:03.349Z,6.10
2022-12-23T07:30:29.809Z,10.30
2022-12-23T07:32:56.122Z,4.90
2022-12-23T07:35:22.503Z,7.70
2022-12-23T07:37:52.775Z,5.40
2022-12-23T07:40:19.238Z,6.20
2022-12-23T07:46:09.366Z,5.30
2022-12-23T07:48:37.399Z,5.20
2022-12-23T07:51:05.445Z,6.60
2022-12-23T07:53:33.354Z,11.00
2022-12-23T07:56:01.203Z,13.00
2022-12-23T07:58:28.983Z,12.30
2022-12-23T08:01:04.331Z,11.50
2022-12-23T08:03:32.209Z,8.30
2022-12-23T08:06:04.596Z,12.00
2022-12-23T08:08:32.784Z,14.00
2022-12-23T08:11:02.139Z,9.70
2022-12-23T08:13:30.755Z,9.60
2022-12-23T08:15:59.429Z,9.80
2022-12-23T08:18:29.292Z,9.70
2022-12-23T08:21:00.956Z,9.70
2022-12-23T08:23:29.362Z,29.50
2022-12-23T08:26:04.689Z,9.90
2022-12-23T08:28:32.699Z,17.10
2022-12-23T08:31:26.975Z,19.70
2022-12-23T08:33:56.476Z,17.60
2022-12-23T08:36:26.005Z,10.60
2022-12-23T08:38:54.507Z,11.30
2022-12-23T08:41:24.074Z,7.50
2022-12-23T08:47:21.630Z,19.00
2022-12-23T08:49:48.274Z,14.80
2022-12-23T08:52:14.693Z,8.70
2022-12-23T08:54:41.061Z,9.10
2022-12-23T08:57:07.399Z,17.40
2022-12-23T08:59:33.981Z,21.00
2022-12-23T09:02:01.398Z,18.40
2022-12-23T09:04:28.088Z,21.00
2022-12-23T09:06:54.473Z,20.10
2022-12-23T09:09:20.848Z,13.00
2022-12-23T09:11:47.275Z,9.60
2022-12-23T09:14:13.819Z,12.50
2022-12-23T09:16:40.263Z,21.30
2022-12-23T09:19:07.239Z,19.40
2022-12-23T09:21:34.052Z,22.20
2022-12-23T09:24:00.411Z,21.30
2022-12-23T09:26:28.053Z,8.40
2022-12-23T09:28:55.279Z,7.20
2022-12-23T09:31:22.260Z,6.30
2022-12-23T09:33:50.516Z,10.90
2022-12-23T09:36:17.054Z,13.20
2022-12-23T09:38:44.004Z,11.00
2022-12-23T09:41:29.552Z,11.00
2022-12-23T09:43:58.790Z,7.70
2022-12-23T09:46:27.954Z,7.00
2022-12-23T09:49:14.495Z,6.50
2022-12-23T09:51:41.013Z,9.40
2022-12-23T09:54:33.783Z,13.20
2022-12-23T09:57:08.801Z,10.70
2022-12-23T09:59:50.458Z,12.90
2022-12-23T10:02:21.412Z,10.50
2022-12-23T10:04:50.894Z,10.50
2022-12-23T10:07:22.177Z,21.30
2022-12-23T10:12:28.924Z,25.00
2022-12-23T10:14:58.179Z,16.10
2022-12-23T10:17:37.703Z,12.30
2022-12-23T10:20:05.265Z,104.70
2022-12-23T10:22:42.555Z,32.40
2022-12-23T10:25:29.285Z,34.00
2022-12-23T10:27:55.781Z,56.80
2022-12-23T10:33:18.244Z,36.00
2022-12-23T10:35:47.766Z,161.50
2022-12-23T10:38:33.243Z,33.40
2022-12-23T10:41:18.614Z,51.30
2022-12-23T10:43:53.861Z,26.40
2022-12-23T10:46:20.298Z,25.10
2022-12-23T10:49:05.066Z,26.10
2022-12-23T10:51:41.416Z,25.20
2022-12-23T10:54:13.540Z,30.70
2022-12-23T10:56:40.005Z,27.80
2022-12-23T10:59:09.192Z,20.50
2022-12-23T11:01:35.843Z,22.30
2022-12-23T11:04:13.882Z,21.50
2022-12-23T11:06:45.521Z,16.40
2022-12-23T11:09:27.721Z,23.10
2022-12-23T11:11:54.088Z,16.20
2022-12-23T11:14:32.560Z,12.10
2022-12-23T11:16:58.923Z,11.20
2022-12-23T11:19:25.271Z,9.90
2022-12-23T11:21:58.916Z,10.00
2022-12-23T11:24:35.422Z,11.50
2022-12-23T11:27:05.464Z,10.60
2022-12-23T11:29:36.782Z,9.20
2022-12-23T11:32:14.548Z,7.70
2022-12-23T11:34:43.607Z,9.20
2022-12-23T11:37:22.676Z,15.20
2022-12-23T11:39:49.222Z,18.50
2022-12-23T11:42:17.293Z,23.10
2022-12-23T11:44:51.256Z,18.60
2022-12-23T11:47:39.135Z,20.80
2022-12-23T11:50:24.526Z,11.10
2022-12-23T11:52:51.872Z,9.00
2022-12-23T11:55:26.467Z,12.40
2022-12-23T11:57:52.892Z,16.60
2022-12-23T12:00:21.305Z,40.10
2022-12-23T12:02:56.014Z,20.60
2022-12-23T12:05:22.808Z,45.70
2022-12-23T12:07:50.831Z,24.70
2022-12-23T12:10:18.859Z,24.00
2022-12-23T12:12:51.338Z,14.90
2022-12-23T12:15:24.819Z,12.10
2022-12-23T12:17:52.747Z,11.80
2022-12-23T12:20:28.503Z,11.50
2022-12-23T12:22:58.038Z,14.00
2022-12-23T12:25:47.489Z,9.30
2022-12-23T12:28:18.513Z,9.50
2022-12-23T12:30:50.950Z,10.70
2022-12-23T12:33:22.864Z,7.60
2022-12-23T12:36:06.183Z,9.50
2022-12-23T12:38:33.958Z,7.10
2022-12-23T12:41:22.437Z,8.80
2022-12-23T12:44:07.543Z,9.80
2022-12-23T12:46:42.412Z,9.00
2022-12-23T12:49:18.248Z,9.00
2022-12-23T12:51:56.611Z,9.60
2022-12-23T12:54:26.329Z,10.70
2022-12-23T12:56:54.034Z,13.50
2022-12-23T12:59:40.646Z,10.60
2022-12-23T13:02:06.993Z,11.20
2022-12-23T13:04:42.181Z,9.00
2022-12-23T13:07:20.714Z,12.10
2022-12-23T13:09:47.185Z,11.30
2022-12-23T13:12:29.837Z,10.60
2022-12-23T13:14:56.316Z,9.30
2022-12-23T13:17:28.854Z,15.10
2022-12-23T13:19:55.233Z,13.40
2022-12-23T13:22:26.717Z,14.20
2022-12-23T13:24:56.069Z,21.20
2022-12-23T13:27:41.515Z,22.10
2022-12-23T13:30:13.760Z,15.20
2022-12-23T13:33:04.428Z,12.00
2022-12-23T13:35:42.915Z,10.70
2022-12-23T13:38:21.663Z,17.80
2022-12-23T13:40:57.654Z,8.90
2022-12-23T13:43:25.159Z,16.40
2022-12-23T13:45:53.271Z,18.30
2022-12-23T13:48:31.611Z,22.20
2022-12-23T13:50:58.044Z,27.50
2022-12-23T13:53:28.252Z,29.10
2022-12-23T13:56:09.344Z,25.90
2022-12-23T13:58:38.178Z,38.30
2022-12-23T14:01:07.500Z,23.70
2022-12-23T14:03:35.141Z,21.10
2022-12-23T14:06:21.455Z,28.10
2022-12-23T14:08:48.201Z,47.10
2022-12-23T14:11:23.389Z,40.70
2022-12-23T14:13:49.953Z,54.60
2022-12-23T14:16:34.670Z,56.00
2022-12-23T14:19:03.982Z,41.80
2022-12-23T14:21:49.096Z,26.00
2022-12-23T14:24:15.452Z,25.20
2022-12-23T14:26:51.256Z,20.60
2022-12-23T14:29:32.652Z,17.00
2022-12-23T14:34:27.486Z,10.00
2022-12-23T14:37:12.790Z,6.30
2022-12-23T14:39:39.256Z,8.70
2022-12-23T14:42:13.330Z,11.90
2022-12-23T14:47:59.403Z,37.20
2022-12-23T14:50:34.994Z,41.90
2022-12-23T14:53:21.696Z,35.50
2022-12-23T14:55:50.165Z,31.20
2022-12-23T14:58:17.927Z,34.60
2022-12-23T15:01:05.990Z,34.20
2022-12-23T15:03:35.196Z,38.20
2022-12-23T15:06:04.690Z,34.00
2022-12-23T15:08:40.670Z,30.30
2022-12-23T15:11:15.538Z,41.40
2022-12-23T15:13:43.526Z,46.00
2022-12-23T15:16:16.766Z,49.60
2022-12-23T15:18:55.114Z,334.10
2022-12-23T15:21:30.130Z,122.60
2022-12-23T15:23:58.017Z,68.60
2022-12-23T15:26:27.631Z,38.40
2022-12-23T15:28:55.586Z,30.60
2022-12-23T15:31:27.992Z,51.50
2022-12-23T15:34:06.160Z,55.60
2022-12-23T15:36:36.437Z,80.60
2022-12-23T15:39:09.808Z,31.10
2022-12-23T15:41:45.040Z,22.60
2022-12-23T15:44:15.472Z,74.70
2022-12-23T15:46:43.421Z,85.80
2022-12-23T15:49:12.098Z,75.00
2022-12-23T15:52:06.592Z,53.30
2022-12-23T15:54:31.947Z,87.40
2022-12-23T15:57:01.135Z,59.50
2022-12-23T15:59:31.813Z,52.60
2022-12-23T16:02:32.184Z,40.10
2022-12-23T16:04:56.529Z,49.80
2022-12-23T16:07:42.447Z,52.20
2022-12-23T16:10:15.444Z,53.30
2022-12-23T16:12:43.775Z,63.20
2022-12-23T16:15:27.980Z,93.60
2022-12-23T16:18:34.137Z,71.40
2022-12-23T16:21:03.527Z,127.60
2022-12-23T16:23:33.249Z,126.90
2022-12-23T16:26:01.708Z,81.30
2022-12-23T16:28:40.253Z,103.40
2022-12-23T16:31:09.982Z,107.00
2022-12-23T16:33:44.001Z,136.50
2022-12-23T16:36:16.269Z,276.40
2022-12-23T16:38:44.900Z,306.70
2022-12-23T16:41:12.879Z,282.00
2022-12-23T16:43:44.540Z,277.70
2022-12-23T16:46:18.936Z,240.60
2022-12-23T16:48:55.859Z,226.90
2022-12-23T16:51:24.716Z,230.90
2022-12-23T16:53:55.219Z,193.80
2022-12-23T16:56:43.330Z,98.80
2022-12-23T16:59:11.257Z,91.30
2022-12-23T17:01:40.564Z,69.10
2022-12-23T17:04:08.830Z,57.60
2022-12-23T17:06:37.378Z,62.10
2022-12-23T17:09:05.722Z,51.10
2022-12-23T17:11:45.951Z,34.60
2022-12-23T17:14:15.956Z,32.50
2022-12-23T17:16:44.739Z,80.50
2022-12-23T17:19:12.913Z,61.90
2022-12-23T17:21:42.012Z,72.00
2022-12-23T17:24:16.631Z,62.30
2022-12-23T17:26:44.372Z,107.10
2022-12-23T17:29:13.173Z,113.80
2022-12-23T17:31:42.686Z,89.70
2022-12-23T17:34:15.504Z,69.20
2022-12-23T17:36:49.548Z,72.20
2022-12-23T17:39:19.340Z,65.00
2022-12-23T17:41:47.898Z,62.00
2022-12-23T17:44:16.682Z,35.90
2022-12-23T17:46:45.186Z,27.20
2022-12-23T17:49:13.134Z,22.70
2022-12-23T17:51:41.750Z,21.40
2022-12-23T17:54:20.344Z,14.10
2022-12-23T17:56:48.326Z,14.30
2022-12-23T17:59:16.258Z,12.30
2022-12-23T18:01:44.067Z,15.10
2022-12-23T18:04:12.016Z,54.20
2022-12-23T18:06:39.870Z,123.60
2022-12-23T18:09:07.841Z,110.90
2022-12-23T18:11:45.437Z,88.20
2022-12-23T18:14:16.086Z,99.80
2022-12-23T18:16:44.207Z,85.00
2022-12-23T18:19:16.947Z,60.90
2022-12-23T18:21:45.168Z,61.10
2022-12-23T18:24:12.874Z,44.10
2022-12-23T18:26:40.958Z,39.90
2022-12-23T18:29:08.706Z,41.70
2022-12-23T18:31:37.202Z,45.40
2022-12-23T18:34:05.292Z,67.50
2022-12-23T18:36:36.099Z,70.80
2022-12-23T18:39:04.057Z,53.20
2022-12-23T18:41:31.945Z,56.80
2022-12-23T18:43:59.788Z,52.80
2022-12-23T18:46:27.640Z,50.20
2022-12-23T18:48:55.519Z,49.10
2022-12-23T18:51:23.290Z,59.90
2022-12-23T18:53:51.155Z,104.40
2022-12-23T18:56:21.207Z,78.60
2022-12-23T18:58:49.545Z,95.30
2022-12-23T19:01:18.215Z,94.20
2022-12-23T19:03:46.504Z,70.20
2022-12-23T19:06:15.292Z,56.70
2022-12-23T19:08:43.625Z,37.40
2022-12-23T19:11:11.634Z,38.20
2022-12-23T19:13:42.010Z,130.70
2022-12-23T19:16:13.623Z,97.30
2022-12-23T19:18:41.729Z,62.20
2022-12-23T19:21:09.671Z,46.00
2022-12-23T19:23:39.304Z,36.30
2022-12-23T19:26:08.790Z,44.80
2022-12-23T19:28:37.493Z,49.50
2022-12-23T19:31:12.753Z,44.50
2022-12-23T19:33:41.605Z,49.30
2022-12-23T19:36:10.713Z,56.50
2022-12-23T19:38:38.557Z,42.90
2022-12-23T19:41:07.528Z,49.00
2022-12-23T19:43:37.172Z,64.60
2022-12-23T19:46:07.233Z,60.60
2022-12-23T19:48:35.688Z,42.40
2022-12-23T19:51:05.551Z,34.70
2022-12-23T19:53:34.036Z,236.40
2022-12-23T19:56:06.269Z,50.10
2022-12-23T19:58:35.819Z,40.50
2022-12-23T20:01:17.155Z,53.50
2022-12-23T20:06:20.373Z,110.20
2022-12-23T20:08:48.956Z,52.40
2022-12-23T20:11:18.204Z,69.40
2022-12-23T20:13:46.424Z,58.90
2022-12-23T20:16:14.512Z,60.70
2022-12-23T20:18:42.410Z,41.30
2022-12-23T20:21:10.212Z,63.30
2022-12-23T20:23:38.018Z,42.50
2022-12-23T20:26:06.398Z,34.60
2022-12-23T20:28:34.205Z,55.90
2022-12-23T20:31:09.637Z,41.80
2022-12-23T20:33:38.421Z,37.20
2022-12-23T20:36:06.863Z,50.60
2022-12-23T20:38:35.391Z,39.10
2022-12-23T20:41:03.203Z,34.10
2022-12-23T20:43:31.340Z,38.40
2022-12-23T20:45:59.146Z,40.30
2022-12-23T20:48:33.618Z,37.70
2022-12-23T20:51:06.414Z,42.90
2022-12-23T20:53:34.696Z,27.70
2022-12-23T20:56:04.421Z,27.70
2022-12-23T20:58:51.100Z,27.20
2022-12-23T21:01:19.063Z,48.40
2022-12-23T21:03:47.082Z,25.30
2022-12-23T21:06:15.319Z,43.10
2022-12-23T21:08:43.330Z,78.70
2022-12-23T21:11:11.154Z,57.00
2022-12-23T21:13:40.497Z,62.50
2022-12-23T21:16:09.454Z,44.60
2022-12-23T21:18:39.939Z,47.40
2022-12-23T21:21:08.059Z,88.60
2022-12-23T21:23:36.704Z,42.00
2022-12-23T21:26:06.084Z,48.00
2022-12-23T21:28:33.952Z,74.40
2022-12-23T21:31:01.985Z,40.30
2022-12-23T21:33:29.740Z,52.60
2022-12-23T21:35:57.714Z,63.00
2022-12-23T21:38:25.498Z,70.60
2022-12-23T21:40:59.000Z,92.20
2022-12-23T21:43:27.148Z,47.50
2022-12-23T21:46:02.472Z,57.90
2022-12-23T21:48:30.970Z,69.40
2022-12-23T21:51:21.979Z,62.60
2022-12-23T21:53:50.964Z,56.80
2022-12-23T21:56:20.051Z,59.30
2022-12-23T21:58:47.900Z,74.70
2022-12-23T22:01:20.238Z,21.10
2022-12-23T22:03:49.378Z,29.80
2022-12-23T22:06:22.191Z,18.80
2022-12-23T22:08:51.493Z,9.90
2022-12-23T22:11:20.839Z,16.80
2022-12-23T22:13:49.141Z,9.20
2022-12-23T22:16:21.784Z,10.60
2022-12-23T22:18:50.200Z,8.10
2022-12-23T22:21:19.227Z,17.50
2022-12-23T22:23:47.162Z,9.20
2022-12-23T22:26:20.391Z,31.80
2022-12-23T22:28:52.745Z,8.70
2022-12-23T22:31:37.985Z,10.80
2022-12-23T22:34:07.418Z,8.90
2022-12-23T22:36:35.298Z,7.60
2022-12-23T22:39:04.291Z,6.80
2022-12-23T22:41:32.329Z,8.10
2022-12-23T22:44:00.136Z,11.40
2022-12-23T22:46:28.081Z,14.30
2022-12-23T22:48:56.592Z,11.00
2022-12-23T22:51:25.973Z,14.00
2022-12-23T22:53:54.284Z,36.40
2022-12-23T22:56:22.745Z,28.00
2022-12-23T22:58:51.089Z,14.20
2022-12-23T23:01:22.501Z,12.10
2022-12-23T23:03:56.849Z,10.20
2022-12-23T23:06:35.165Z,6.40
2022-12-23T23:09:03.329Z,5.60
2022-12-23T23:11:31.110Z,11.90
2022-12-23T23:13:58.907Z,30.10
2022-12-23T23:16:27.336Z,11.50
2022-12-23T23:18:55.213Z,7.10
2022-12-23T23:21:23.130Z,9.70
2022-12-23T23:23:51.053Z,5.60
2022-12-23T23:26:19.547Z,4.50
2022-12-23T23:28:47.892Z,7.20
2022-12-23T23:31:45.553Z,16.60
2022-12-23T23:34:03.461Z,22.70
2022-12-23T23:36:31.351Z,16.00
2022-12-23T23:38:59.375Z,23.70
2022-12-23T23:41:27.259Z,16.80
2022-12-23T23:43:55.053Z,16.80
2022-12-23T23:46:22.958Z,10.10
2022-12-23T23:48:50.921Z,10.20
2022-12-23T23:51:18.714Z,11.70
2022-12-23T23:53:46.502Z,21.60
2022-12-23T23:56:15.796Z,20.00
2022-12-23T23:58:45.859Z,20.60
